Brule, Nebraska
Current Conditions -  °F | °C
As of 9:55 PM on Friday 28 Nov 2014 (Local Time) from KOGA Reporting Station
Clear Clear  
Wind Chill: 29°   Ceiling: Unl
Heat Index: 34°   Visibility: 10mi
Dew Point: 27°   Wind: 6mph
Humidity: 77%   Direction: 250°WSW
Pressure: 29.68"   Gusts: NA
Location:  41.09°N, 101.89°W
Report Text: KOGA 290455Z AUTO 25005KT 10SM CLR 01/M03 A2968 RMK AO2 T00101027
Loading
Personal Weather Stations






























Interactive Weather Map New forecast layout! Learn more

10-Day Weather Forecast

Advertisements
Track Severe Weather on mobile